Hampton, New Hampshire
Current Conditions -  °F | °C
As of 9:58 PM on Saturday 25 Oct 2014 (Local Time) from KPSM Reporting Station
Overcast Overcast  
Wind Chill: 55°   Ceiling: 7000
Heat Index: 55°   Visibility: 10mi
Dew Point: 44°   Wind: 2mph
Humidity: 67%   Direction: 210°SSW
Pressure: 29.51"   Gusts: NA
Location:  42.94°N, 70.83°W
Report Text: KPSM 260158Z 21002KT 10SM BKN070 OVC085 13/07 A2951 RMK AO2A SLP996 T01300069
Loading
Personal Weather Stations






























Interactive Weather Map
Tropical Storm Tracking
New forecast layout! Learn more

10-Day Weather Forecast

Advertisements
Track Severe Weather on mobile